Historique des mesures à Cassis (13260), France
Quotidien Résumé Fevrier 11, 2018 Unités:  US    Métrique   Métrique/US
« Précédent (Jour)
Suivant (Jour) »
Quotidien Hebdomadaire Mensuel Annuel Période au choix
  Maximum: Minimum: Moyenne:
Température: 32 °F 38.3 °F 45.7 °F
Point de rosée: 32 °F 26.4 °F 32.2 °F
Humidité: Humidity % 45 % 56 %
Vitesse du vent: WindSpeedKMH mph 0.0 mph 10.2 mph
Rafales: WindSpeedGustKMH mph - -
Vent:- - SW
Pression: 0 in 29.7 in -
Précipitations: 0 in    
Historical Graphs
 
 
Mesures pour : Fevrier 11, 2018
Heure Temperature Point de rosée Pression Vent Vitesse du vent Rafales Humidité Pluie (par heure) Conditions
32 °F 32 °F 0 in Calm     Humidity % 0 in SoftwareType W/m2
00:12 40.6 °F 28.2 °F 29.8 in NNW 4.0 mph 10.8 mph 61 % 0 in open2300-1.11 W/m2
01:12 39.4 °F 27.3 °F 29.8 in North 12.6 mph 16.3 mph 62 % 0 in open2300-1.11 W/m2
02:12 40.3 °F 27.5 °F 29.8 in NNE 8.7 mph 19.5 mph 60 % 0 in open2300-1.11 W/m2
03:12 40.1 °F 27 °F 29.8 in NW 16.3 mph 21.9 mph 59 % 0 in open2300-1.11 W/m2
04:12 39.7 °F 26.4 °F 29.8 in NW 13.0 mph 16.3 mph 59 % 0 in open2300-1.11 W/m2
05:12 38.3 °F 26.4 °F 29.8 in North 7.6 mph 8.7 mph 62 % 0 in open2300-1.11 W/m2
06:12 39.6 °F 26.8 °F 29.8 in WNW 2.9 mph 16.6 mph 60 % 0 in open2300-1.11 W/m2
07:12 40.5 °F 26.8 °F 29.8 in NNW 4.7 mph 10.5 mph 58 % 0 in open2300-1.11 W/m2
08:12 41.2 °F 26.6 °F 29.8 in Calm   8.2 mph 56 % 0 in open2300-1.11 W/m2
09:12 42.6 °F 27.1 °F 29.8 in North 14.3 mph 15.1 mph 54 % 0 in open2300-1.11 W/m2
10:12 45.1 °F 28.9 °F 29.8 in NW 2.1 mph 13.7 mph 53 % 0 in open2300-1.11 W/m2
11:12 47.8 °F 29.5 °F 29.8 in WNW 4.0 mph 7.2 mph 49 % 0 in open2300-1.11 W/m2
12:12 50.5 °F 29.8 °F 29.8 in North 5.5 mph 14.3 mph 45 % 0 in open2300-1.11 W/m2
13:12 51.4 °F 32.4 °F 29.8 in NW 8.7 mph 23.8 mph 48 % 0 in open2300-1.11 W/m2
14:12 52.5 °F 33.3 °F 29.8 in WNW 20.9 mph 20.9 mph 48 % 0 in open2300-1.11 W/m2
15:12 51.6 °F 36.3 °F 29.8 in NW 28.2 mph 28.2 mph 56 % 0 in open2300-1.11 W/m2
16:12 52.5 °F 39 °F 29.7 in West 16.9 mph 18.0 mph 60 % 0 in open2300-1.11 W/m2
17:12 50.7 °F 38.8 °F 29.7 in West 6.1 mph 6.1 mph 64 % 0 in open2300-1.11 W/m2
18:12 50.2 °F 40.5 °F 29.7 in WNW 5.8 mph 5.8 mph 69 % 0 in open2300-1.11 W/m2
19:12 49.8 °F 40.8 °F 29.7 in Calm   5.0 mph 71 % 0 in open2300-1.11 W/m2
20:12 50.5 °F 40.8 °F 29.7 in WNW 25.3 mph 25.3 mph 69 % 0 in open2300-1.11 W/m2
21:12 51.1 °F 39.4 °F 29.7 in NW 12.2 mph 12.2 mph 64 % 0 in open2300-1.11 W/m2
22:12 51.1 °F 37.8 °F 29.7 in West 20.9 mph 20.9 mph 60 % 0 in open2300-1.11 W/m2
23:12 50.5 °F 35.8 °F 29.7 in NW 14.3 mph 29.1 mph 57 % 0 in open2300-1.11 W/m2
Observations météo à CASSIS
WU-History script by Weather Underground - 1 mb